createdAt,value
2022-11-16T00:00:05.588Z,1007.59
2022-11-16T00:01:01.288Z,1007.63
2022-11-16T00:02:01.364Z,1007.65
2022-11-16T00:03:01.167Z,1007.61
2022-11-16T00:04:01.608Z,1007.61
2022-11-16T00:05:01.182Z,1007.59
2022-11-16T00:06:01.077Z,1007.56
2022-11-16T00:07:01.092Z,1007.58
2022-11-16T00:08:01.089Z,1007.61
2022-11-16T00:09:01.084Z,1007.52
2022-11-16T00:10:01.315Z,1007.58
2022-11-16T00:11:01.341Z,1007.55
2022-11-16T00:12:01.518Z,1007.53
2022-11-16T00:13:02.037Z,1007.5
2022-11-16T00:14:01.063Z,1007.5
2022-11-16T00:15:01.124Z,1007.44
2022-11-16T00:16:01.131Z,1007.42
2022-11-16T00:17:01.144Z,1007.41
2022-11-16T00:18:01.413Z,1007.4
2022-11-16T00:19:01.086Z,1007.4
2022-11-16T00:20:01.067Z,1007.4
2022-11-16T00:21:01.242Z,1007.4
2022-11-16T00:22:01.255Z,1007.35
2022-11-16T00:23:01.881Z,1007.33
2022-11-16T00:24:02.122Z,1007.36
2022-11-16T00:25:02.676Z,1007.33
2022-11-16T00:26:01.147Z,1007.34
2022-11-16T00:27:01.282Z,1007.33
2022-11-16T00:28:01.136Z,1007.37
2022-11-16T00:29:01.382Z,1007.34
2022-11-16T00:30:01.068Z,1007.33
2022-11-16T00:31:01.539Z,1007.32
2022-11-16T00:32:02.078Z,1007.31
2022-11-16T00:33:01.175Z,1007.36
2022-11-16T00:34:01.053Z,1007.32
2022-11-16T00:35:01.144Z,1007.36
2022-11-16T00:36:01.052Z,1007.33
2022-11-16T00:37:01.290Z,1007.32
2022-11-16T00:38:01.449Z,1007.33
2022-11-16T00:39:01.604Z,1007.31
2022-11-16T00:40:01.189Z,1007.27
2022-11-16T00:41:04.041Z,1007.31
2022-11-16T00:42:01.931Z,1007.33
2022-11-16T00:43:01.134Z,1007.32
2022-11-16T00:44:01.121Z,1007.34
2022-11-16T00:45:01.550Z,1007.38
2022-11-16T00:46:02.681Z,1007.35
2022-11-16T00:47:02.015Z,1007.39
2022-11-16T00:48:01.338Z,1007.44
2022-11-16T00:49:01.213Z,1007.4
2022-11-16T00:50:01.912Z,1007.45
2022-11-16T00:51:00.944Z,1007.45
2022-11-16T00:52:00.544Z,1007.47
2022-11-16T00:53:00.498Z,1007.45
2022-11-16T00:54:01.181Z,1007.47
2022-11-16T00:55:01.324Z,1007.46
2022-11-16T00:56:08.791Z,1007.44
2022-11-16T00:57:01.920Z,1007.49
2022-11-16T00:58:01.095Z,1007.46
2022-11-16T00:59:01.253Z,1007.43
2022-11-16T01:00:01.491Z,1007.47
2022-11-16T01:01:07.700Z,1007.43
2022-11-16T01:02:01.961Z,1007.42
2022-11-16T01:03:01.486Z,1007.41
2022-11-16T01:04:01.400Z,1007.44
2022-11-16T01:05:01.313Z,1007.41
2022-11-16T01:06:14.981Z,1007.42
2022-11-16T01:07:01.160Z,1007.37
2022-11-16T01:08:01.160Z,1007.41
2022-11-16T01:09:03.907Z,1007.43
2022-11-16T01:10:01.284Z,1007.39
2022-11-16T01:11:01.116Z,1007.34
2022-11-16T01:12:01.124Z,1007.32
2022-11-16T01:13:01.081Z,1007.33
2022-11-16T01:14:01.248Z,1007.29
2022-11-16T01:15:01.158Z,1007.26
2022-11-16T01:16:01.120Z,1007.28
2022-11-16T01:17:01.356Z,1007.23
2022-11-16T01:18:01.419Z,1007.24
2022-11-16T01:19:02.856Z,1007.26
2022-11-16T01:20:02.034Z,1007.2
2022-11-16T01:21:01.531Z,1007.2
2022-11-16T01:22:01.322Z,1007.17
2022-11-16T01:23:00.969Z,1007.22
2022-11-16T01:24:01.072Z,1007.15
2022-11-16T01:25:01.608Z,1007.17
2022-11-16T01:26:01.766Z,1007.16
2022-11-16T01:27:01.190Z,1007.12
2022-11-16T01:28:01.641Z,1007.1
2022-11-16T01:29:01.168Z,1007.1
2022-11-16T01:30:02.178Z,1007.11
2022-11-16T01:31:01.101Z,1007.11
2022-11-16T01:32:01.115Z,1007.11
2022-11-16T01:33:01.133Z,1007.09
2022-11-16T01:34:01.361Z,1007.11
2022-11-16T01:35:01.373Z,1007.11
2022-11-16T01:36:01.547Z,1007.09
2022-11-16T01:37:01.421Z,1007.11
2022-11-16T01:38:01.154Z,1007.08
2022-11-16T01:39:01.164Z,1007.11
2022-11-16T01:40:01.212Z,1007.1
2022-11-16T01:41:01.962Z,1007.09
2022-11-16T01:42:01.185Z,1007.07
2022-11-16T01:43:01.068Z,1007.15
2022-11-16T01:44:01.266Z,1007.11
2022-11-16T01:45:01.118Z,1007.09
2022-11-16T01:46:00.365Z,1007.08
2022-11-16T01:46:59.958Z,1007.1
2022-11-16T01:47:59.949Z,1007.07
2022-11-16T01:48:59.911Z,1007.04
2022-11-16T01:49:59.557Z,1007.05
2022-11-16T01:51:01.531Z,1006.96
2022-11-16T01:52:01.127Z,1007.03
2022-11-16T01:53:01.174Z,1006.94
2022-11-16T01:54:01.153Z,1006.92
2022-11-16T01:55:01.162Z,1006.94
2022-11-16T01:56:01.177Z,1006.96
2022-11-16T01:57:01.309Z,1006.98
2022-11-16T01:58:01.593Z,1006.92
2022-11-16T01:59:01.695Z,1006.98
2022-11-16T02:00:02.176Z,1006.95
2022-11-16T02:01:02.424Z,1006.96
2022-11-16T02:02:01.961Z,1006.98
2022-11-16T02:03:01.768Z,1006.92
2022-11-16T02:04:01.143Z,1006.99
2022-11-16T02:05:01.123Z,1006.96
2022-11-16T02:06:01.120Z,1006.98
2022-11-16T02:07:01.201Z,1006.95
2022-11-16T02:08:01.392Z,1006.95
2022-11-16T02:09:01.591Z,1006.95
2022-11-16T02:10:01.153Z,1006.95
2022-11-16T02:11:01.395Z,1006.91
2022-11-16T02:12:01.113Z,1006.92
2022-11-16T02:13:01.295Z,1006.93
2022-11-16T02:13:59.943Z,1006.9
2022-11-16T02:14:59.567Z,1006.89
2022-11-16T02:16:01.856Z,1006.9
2022-11-16T02:17:01.089Z,1006.88
2022-11-16T02:18:08.190Z,1006.91
2022-11-16T02:19:04.163Z,1006.87
2022-11-16T02:20:01.254Z,1006.86
2022-11-16T02:21:02.057Z,1006.87
2022-11-16T02:22:00.991Z,1006.86
2022-11-16T02:23:01.713Z,1006.81
2022-11-16T02:24:01.168Z,1006.83
2022-11-16T02:25:02.075Z,1006.78
2022-11-16T02:26:01.393Z,1006.76
2022-11-16T02:27:03.337Z,1006.79
2022-11-16T02:28:02.605Z,1006.79
2022-11-16T02:29:01.956Z,1006.79
2022-11-16T02:30:01.060Z,1006.74
2022-11-16T02:31:01.239Z,1006.76
2022-11-16T02:32:06.911Z,1006.75
2022-11-16T02:33:01.329Z,1006.77
2022-11-16T02:34:02.195Z,1006.8
2022-11-16T02:35:02.430Z,1006.83
2022-11-16T02:36:01.898Z,1006.81
2022-11-16T02:37:10.309Z,1006.81
2022-11-16T02:38:01.203Z,1006.77
2022-11-16T02:39:02.079Z,1006.76
2022-11-16T02:40:01.829Z,1006.72
2022-11-16T02:41:03.268Z,1006.7
2022-11-16T02:42:13.955Z,1006.72
2022-11-16T02:43:02.045Z,1006.69
2022-11-16T02:44:01.069Z,1006.64
2022-11-16T02:45:01.606Z,1006.67
2022-11-16T02:46:01.175Z,1006.64
2022-11-16T02:47:16.460Z,1006.61
2022-11-16T02:48:01.630Z,1006.61
2022-11-16T02:49:01.673Z,1006.57
2022-11-16T02:50:01.044Z,1006.6
2022-11-16T02:51:01.099Z,1006.54
2022-11-16T02:52:01.058Z,1006.61
2022-11-16T02:53:01.107Z,1006.57
2022-11-16T02:54:01.719Z,1006.52
2022-11-16T02:55:01.393Z,1006.5
2022-11-16T02:56:01.329Z,1006.53
2022-11-16T02:57:01.646Z,1006.52
2022-11-16T02:58:01.125Z,1006.45
2022-11-16T02:59:01.074Z,1006.4
2022-11-16T03:00:01.045Z,1006.38
2022-11-16T03:01:01.629Z,1006.39
2022-11-16T03:02:01.440Z,1006.43
2022-11-16T03:03:01.977Z,1006.41
2022-11-16T03:04:01.075Z,1006.4
2022-11-16T03:05:00.586Z,1006.37
2022-11-16T03:06:00.258Z,1006.42
2022-11-16T03:07:00.346Z,1006.38
2022-11-16T03:08:00.162Z,1006.35
2022-11-16T03:08:59.821Z,1006.38
2022-11-16T03:10:01.456Z,1006.37
2022-11-16T03:11:01.118Z,1006.36
2022-11-16T03:12:01.137Z,1006.33
2022-11-16T03:13:01.124Z,1006.3
2022-11-16T03:14:01.011Z,1006.28
2022-11-16T03:15:01.995Z,1006.31
2022-11-16T03:16:01.142Z,1006.26
2022-11-16T03:17:01.163Z,1006.19
2022-11-16T03:18:01.053Z,1006.16
2022-11-16T03:19:01.076Z,1006.15
2022-11-16T03:20:03.724Z,1006.17
2022-11-16T03:21:01.050Z,1006.15
2022-11-16T03:22:01.477Z,1006.15
2022-11-16T03:23:01.175Z,1006.12
2022-11-16T03:24:01.340Z,1006.16
2022-11-16T03:25:01.527Z,1006.16
2022-11-16T03:26:01.100Z,1006.14
2022-11-16T03:27:01.113Z,1006.12
2022-11-16T03:28:01.121Z,1006.16
2022-11-16T03:29:01.348Z,1006.18
2022-11-16T03:30:01.403Z,1006.14
2022-11-16T03:31:01.618Z,1006.16
2022-11-16T03:32:01.525Z,1006.19
2022-11-16T03:33:01.165Z,1006.19
2022-11-16T03:34:01.178Z,1006.18
2022-11-16T03:35:01.064Z,1006.2
2022-11-16T03:36:01.070Z,1006.19
2022-11-16T03:37:01.062Z,1006.25
2022-11-16T03:38:01.446Z,1006.2
2022-11-16T03:39:01.103Z,1006.23
2022-11-16T03:40:01.090Z,1006.23
2022-11-16T03:41:01.093Z,1006.27
2022-11-16T03:42:01.107Z,1006.28
2022-11-16T03:43:01.389Z,1006.24
2022-11-16T03:44:01.557Z,1006.21
2022-11-16T03:45:02.037Z,1006.22
2022-11-16T03:46:01.421Z,1006.25
2022-11-16T03:47:01.493Z,1006.22
2022-11-16T03:48:01.386Z,1006.23
2022-11-16T03:49:01.298Z,1006.27
2022-11-16T03:50:01.740Z,1006.23
2022-11-16T03:51:02.771Z,1006.22
2022-11-16T03:52:01.603Z,1006.28
2022-11-16T03:53:03.646Z,1006.24
2022-11-16T03:54:00.903Z,1006.24
2022-11-16T03:55:00.870Z,1006.28
2022-11-16T03:56:01.597Z,1006.32
2022-11-16T03:57:02.186Z,1006.33
2022-11-16T03:58:07.755Z,1006.37
2022-11-16T03:59:01.159Z,1006.33
2022-11-16T04:00:01.357Z,1006.37
2022-11-16T04:01:01.898Z,1006.38
2022-11-16T04:02:01.142Z,1006.39
2022-11-16T04:03:10.453Z,1006.34
2022-11-16T04:04:01.149Z,1006.33
2022-11-16T04:05:01.535Z,1006.36
2022-11-16T04:06:01.047Z,1006.27
2022-11-16T04:07:01.073Z,1006.35
2022-11-16T04:08:13.610Z,1006.25
2022-11-16T04:09:01.254Z,1006.26
2022-11-16T04:10:01.715Z,1006.28
2022-11-16T04:11:02.446Z,1006.21
2022-11-16T04:12:01.094Z,1006.22
2022-11-16T04:13:16.258Z,1006.26
2022-11-16T04:14:06.540Z,1006.24
2022-11-16T04:15:01.988Z,1006.21
2022-11-16T04:16:01.115Z,1006.27
2022-11-16T04:17:01.878Z,1006.22
2022-11-16T04:18:01.646Z,1006.23
2022-11-16T04:19:03.710Z,1006.24
2022-11-16T04:20:01.209Z,1006.28
2022-11-16T04:21:01.344Z,1006.24
2022-11-16T04:22:01.468Z,1006.23
2022-11-16T04:23:01.472Z,1006.19
2022-11-16T04:24:02.311Z,1006.16
2022-11-16T04:25:01.124Z,1006.11
2022-11-16T04:26:01.100Z,1006.12
2022-11-16T04:27:01.443Z,1006.05
2022-11-16T04:28:01.291Z,1006.04
2022-11-16T04:29:01.345Z,1006.04
2022-11-16T04:30:01.380Z,1006.01
2022-11-16T04:31:02.155Z,1006
2022-11-16T04:32:01.111Z,1005.99
2022-11-16T04:33:01.119Z,1005.99
2022-11-16T04:34:02.302Z,1006
2022-11-16T04:35:01.236Z,1005.97
2022-11-16T04:36:01.129Z,1006
2022-11-16T04:37:01.158Z,1005.98
2022-11-16T04:38:01.236Z,1005.94
2022-11-16T04:39:01.626Z,1005.9
2022-11-16T04:40:02.195Z,1005.9
2022-11-16T04:41:01.750Z,1005.87
2022-11-16T04:42:01.323Z,1005.85
2022-11-16T04:43:01.338Z,1005.87
2022-11-16T04:44:01.306Z,1005.84
2022-11-16T04:45:01.974Z,1005.79
2022-11-16T04:46:01.047Z,1005.78
2022-11-16T04:47:01.054Z,1005.8
2022-11-16T04:48:01.847Z,1005.79
2022-11-16T04:49:01.154Z,1005.8
2022-11-16T04:50:01.415Z,1005.83
2022-11-16T04:51:01.598Z,1005.83
2022-11-16T04:52:01.141Z,1005.83
2022-11-16T04:53:01.131Z,1005.86
2022-11-16T04:54:01.147Z,1005.82
2022-11-16T04:55:01.065Z,1005.79
2022-11-16T04:56:01.275Z,1005.79
2022-11-16T04:57:01.081Z,1005.71
2022-11-16T04:58:01.071Z,1005.72
2022-11-16T04:59:01.200Z,1005.71
2022-11-16T05:00:01.067Z,1005.7
2022-11-16T05:01:01.448Z,1005.68
2022-11-16T05:02:01.298Z,1005.69
2022-11-16T05:03:01.939Z,1005.65
2022-11-16T05:04:01.862Z,1005.62
2022-11-16T05:05:01.228Z,1005.68
2022-11-16T05:06:01.325Z,1005.66
2022-11-16T05:07:01.590Z,1005.7
2022-11-16T05:08:01.522Z,1005.68
2022-11-16T05:09:01.208Z,1005.67
2022-11-16T05:10:00.851Z,1005.7
2022-11-16T05:11:00.557Z,1005.6
2022-11-16T05:12:00.249Z,1005.66
2022-11-16T05:12:59.860Z,1005.67
2022-11-16T05:14:01.979Z,1005.65
2022-11-16T05:15:02.108Z,1005.65
2022-11-16T05:16:01.217Z,1005.62
2022-11-16T05:17:01.112Z,1005.64
2022-11-16T05:18:01.431Z,1005.6
2022-11-16T05:19:01.105Z,1005.56
2022-11-16T05:20:01.073Z,1005.63
2022-11-16T05:21:01.283Z,1005.6
2022-11-16T05:22:01.869Z,1005.59
2022-11-16T05:23:02.417Z,1005.62
2022-11-16T05:24:01.491Z,1005.58
2022-11-16T05:25:02.249Z,1005.59
2022-11-16T05:26:03.224Z,1005.56
2022-11-16T05:27:01.945Z,1005.61
2022-11-16T05:28:01.977Z,1005.64
2022-11-16T05:29:01.865Z,1005.65
2022-11-16T05:30:01.248Z,1005.63
2022-11-16T05:31:01.952Z,1005.63
2022-11-16T05:32:01.995Z,1005.66
2022-11-16T05:33:01.252Z,1005.62
2022-11-16T05:34:01.658Z,1005.64
2022-11-16T05:35:01.262Z,1005.66
2022-11-16T05:36:01.131Z,1005.67
2022-11-16T05:37:01.248Z,1005.67
2022-11-16T05:38:02.382Z,1005.66
2022-11-16T05:39:05.103Z,1005.69
2022-11-16T05:40:01.386Z,1005.67
2022-11-16T05:41:01.190Z,1005.67
2022-11-16T05:42:01.174Z,1005.72
2022-11-16T05:43:01.205Z,1005.7
2022-11-16T05:44:09.495Z,1005.73
2022-11-16T05:45:02.413Z,1005.8
2022-11-16T05:46:01.058Z,1005.8
2022-11-16T05:47:01.059Z,1005.82
2022-11-16T05:48:01.154Z,1005.87
2022-11-16T05:49:11.217Z,1005.89
2022-11-16T05:50:02.076Z,1005.93
2022-11-16T05:51:00.898Z,1005.91
2022-11-16T05:52:01.048Z,1005.9
2022-11-16T05:53:01.069Z,1005.91
2022-11-16T05:54:14.463Z,1005.93
2022-11-16T05:55:01.074Z,1005.92
2022-11-16T05:56:01.767Z,1005.93
2022-11-16T05:57:01.786Z,1005.96
2022-11-16T05:58:02.332Z,1005.91
2022-11-16T05:59:17.016Z,1005.91
2022-11-16T06:00:01.361Z,1005.95
2022-11-16T06:01:01.187Z,1005.96
2022-11-16T06:02:01.621Z,1005.96
2022-11-16T06:03:01.378Z,1005.95
2022-11-16T06:04:01.051Z,1005.97
2022-11-16T06:05:01.323Z,1005.93
2022-11-16T06:06:01.945Z,1005.99
2022-11-16T06:07:01.754Z,1005.93
2022-11-16T06:08:01.113Z,1005.96
2022-11-16T06:09:00.771Z,1005.96
2022-11-16T06:10:00.411Z,1005.95
2022-11-16T06:11:00.115Z,1006
2022-11-16T06:11:59.805Z,1006.03
2022-11-16T06:13:01.989Z,1006
2022-11-16T06:14:02.309Z,1005.98
2022-11-16T06:15:00.687Z,1006.02
2022-11-16T06:16:00.354Z,1006.04
2022-11-16T06:16:59.935Z,1006.01
2022-11-16T06:17:59.518Z,1006.04
2022-11-16T06:19:01.090Z,1006.03
2022-11-16T06:20:01.438Z,1005.98
2022-11-16T06:21:01.778Z,1005.98
2022-11-16T06:22:01.940Z,1005.95
2022-11-16T06:23:02.230Z,1005.95
2022-11-16T06:24:01.109Z,1005.94
2022-11-16T06:25:01.044Z,1005.95
2022-11-16T06:26:01.054Z,1005.95
2022-11-16T06:27:01.461Z,1005.9
2022-11-16T06:28:06.652Z,1005.88
2022-11-16T06:29:03.309Z,1005.85
2022-11-16T06:30:00.954Z,1005.91
2022-11-16T06:31:01.577Z,1005.9
2022-11-16T06:32:01.154Z,1005.9
2022-11-16T06:33:01.061Z,1005.93
2022-11-16T06:34:01.130Z,1005.91
2022-11-16T06:35:01.118Z,1005.93
2022-11-16T06:36:01.471Z,1005.92
2022-11-16T06:37:01.085Z,1005.94
2022-11-16T06:38:01.091Z,1005.95
2022-11-16T06:39:01.316Z,1005.94
2022-11-16T06:40:01.127Z,1005.93
2022-11-16T06:41:01.932Z,1005.93
2022-11-16T06:42:01.174Z,1005.93
2022-11-16T06:43:00.537Z,1005.88
2022-11-16T06:44:00.194Z,1005.89
2022-11-16T06:44:59.992Z,1005.85
2022-11-16T06:45:59.596Z,1005.84
2022-11-16T06:47:01.159Z,1005.84
2022-11-16T06:48:01.138Z,1005.84
2022-11-16T06:49:01.058Z,1005.77
2022-11-16T06:50:01.186Z,1005.81
2022-11-16T06:51:01.348Z,1005.79
2022-11-16T06:52:01.470Z,1005.79
2022-11-16T06:53:02.410Z,1005.76
2022-11-16T06:54:01.145Z,1005.78
2022-11-16T06:55:02.122Z,1005.78
2022-11-16T06:56:02.304Z,1005.78
2022-11-16T06:57:01.544Z,1005.82
2022-11-16T06:58:01.769Z,1005.86
2022-11-16T06:59:01.280Z,1005.86
2022-11-16T07:00:01.161Z,1005.83
2022-11-16T07:01:01.954Z,1005.87
2022-11-16T07:02:01.283Z,1005.86
2022-11-16T07:03:01.959Z,1005.93
2022-11-16T07:04:01.964Z,1005.88
2022-11-16T07:05:03.677Z,1005.87
2022-11-16T07:06:01.495Z,1005.86
2022-11-16T07:07:01.621Z,1005.87
2022-11-16T07:08:01.365Z,1005.86
2022-11-16T07:09:01.258Z,1005.91
2022-11-16T07:10:01.030Z,1005.89
2022-11-16T07:11:04.150Z,1005.89
2022-11-16T07:12:01.203Z,1005.92
2022-11-16T07:13:02.026Z,1005.92
2022-11-16T07:14:01.172Z,1005.93
2022-11-16T07:15:03.028Z,1005.97
2022-11-16T07:16:01.527Z,1005.99
2022-11-16T07:17:06.531Z,1005.96
2022-11-16T07:18:01.149Z,1005.93
2022-11-16T07:19:01.865Z,1005.94
2022-11-16T07:20:05.735Z,1005.99
2022-11-16T07:21:01.479Z,1006.04
2022-11-16T07:22:01.447Z,1006.03
2022-11-16T07:23:01.050Z,1006.02
2022-11-16T07:24:01.053Z,1006.04
2022-11-16T07:25:08.806Z,1006.06
2022-11-16T07:26:01.440Z,1006.08
2022-11-16T07:27:01.246Z,1006.09
2022-11-16T07:28:01.926Z,1006.11
2022-11-16T07:29:01.870Z,1006.1
2022-11-16T07:30:11.453Z,1006.12
2022-11-16T07:31:01.700Z,1006.09
2022-11-16T07:32:00.789Z,1006.09
2022-11-16T07:33:00.404Z,1006.12
2022-11-16T07:34:00.004Z,1006.15
2022-11-16T07:35:14.595Z,1006.12
2022-11-16T07:36:00.678Z,1006.13
2022-11-16T07:37:00.351Z,1006.15
2022-11-16T07:37:59.924Z,1006.16
2022-11-16T07:38:59.527Z,1006.13
2022-11-16T07:40:01.249Z,1006.12
2022-11-16T07:41:01.906Z,1006.17
2022-11-16T07:42:01.248Z,1006.13
2022-11-16T07:43:01.099Z,1006.17
2022-11-16T07:44:00.803Z,1006.14
2022-11-16T07:45:00.498Z,1006.21
2022-11-16T07:46:21.327Z,1006.17
2022-11-16T07:47:01.502Z,1006.13
2022-11-16T07:48:01.128Z,1006.21
2022-11-16T07:49:01.172Z,1006.2
2022-11-16T07:50:01.133Z,1006.22
2022-11-16T07:51:00.858Z,1006.23
2022-11-16T07:52:00.597Z,1006.27
2022-11-16T07:53:00.339Z,1006.2
2022-11-16T07:53:59.928Z,1006.25
2022-11-16T07:54:59.538Z,1006.21
2022-11-16T07:56:01.284Z,1006.2
2022-11-16T07:57:01.131Z,1006.22
2022-11-16T07:58:01.120Z,1006.19
2022-11-16T07:59:01.146Z,1006.19
2022-11-16T08:00:01.157Z,1006.17
2022-11-16T08:01:01.711Z,1006.2
2022-11-16T08:02:01.200Z,1006.19
2022-11-16T08:03:01.784Z,1006.19
2022-11-16T08:04:01.249Z,1006.21
2022-11-16T08:05:01.168Z,1006.21
2022-11-16T08:06:01.632Z,1006.16
2022-11-16T08:07:01.314Z,1006.15
2022-11-16T08:08:02.072Z,1006.09
2022-11-16T08:09:04.112Z,1006.09
2022-11-16T08:10:01.212Z,1006.11
2022-11-16T08:11:00.875Z,1006.1
2022-11-16T08:12:01.088Z,1006.09
2022-11-16T08:13:01.090Z,1006.14
2022-11-16T08:14:01.143Z,1006.06
2022-11-16T08:15:01.115Z,1006.1
2022-11-16T08:16:01.124Z,1006.07
2022-11-16T08:17:01.125Z,1006.07
2022-11-16T08:18:01.128Z,1006.05
2022-11-16T08:19:01.285Z,1006.05
2022-11-16T08:20:01.834Z,1006.02
2022-11-16T08:21:02.051Z,1006
2022-11-16T08:22:02.684Z,1006.01
2022-11-16T08:23:01.146Z,1006.01
2022-11-16T08:24:01.191Z,1006.02
2022-11-16T08:25:01.065Z,1006
2022-11-16T08:26:01.069Z,1005.99
2022-11-16T08:27:01.197Z,1005.96
2022-11-16T08:28:01.461Z,1005.91
2022-11-16T08:29:02.084Z,1005.93
2022-11-16T08:30:01.094Z,1005.89
2022-11-16T08:31:01.881Z,1005.92
2022-11-16T08:32:01.085Z,1005.93
2022-11-16T08:33:01.048Z,1005.93
2022-11-16T08:34:01.118Z,1005.93
2022-11-16T08:35:01.114Z,1005.96
2022-11-16T08:36:01.151Z,1005.91
2022-11-16T08:37:01.141Z,1005.9
2022-11-16T08:38:01.537Z,1005.88
2022-11-16T08:39:01.152Z,1005.88
2022-11-16T08:40:01.053Z,1005.85
2022-11-16T08:41:01.058Z,1005.92
2022-11-16T08:42:01.700Z,1005.87
2022-11-16T08:43:01.769Z,1005.86
2022-11-16T08:44:01.762Z,1005.84
2022-11-16T08:45:01.765Z,1005.87
2022-11-16T08:46:01.568Z,1005.91
2022-11-16T08:47:01.064Z,1005.91
2022-11-16T08:48:04.062Z,1005.93
2022-11-16T08:49:01.298Z,1005.95
2022-11-16T08:50:01.108Z,1005.89
2022-11-16T08:51:16.961Z,1005.96
2022-11-16T08:52:01.047Z,1005.98
2022-11-16T08:53:01.196Z,1006
2022-11-16T08:54:01.168Z,1005.94
2022-11-16T08:55:01.176Z,1005.98
2022-11-16T08:56:01.865Z,1005.92
2022-11-16T08:57:01.061Z,1005.92
2022-11-16T08:58:01.088Z,1005.94
2022-11-16T08:59:01.109Z,1005.93
2022-11-16T09:00:01.089Z,1005.91
2022-11-16T09:01:00.890Z,1005.91
2022-11-16T09:02:02.872Z,1005.9
2022-11-16T09:03:02.068Z,1005.92
2022-11-16T09:04:02.650Z,1005.87
2022-11-16T09:05:01.528Z,1005.86
2022-11-16T09:06:02.074Z,1005.84
2022-11-16T09:07:01.215Z,1005.87
2022-11-16T09:08:01.146Z,1005.82
2022-11-16T09:09:01.855Z,1005.84
2022-11-16T09:10:02.961Z,1005.89
2022-11-16T09:11:04.403Z,1005.84
2022-11-16T09:12:00.659Z,1005.84
2022-11-16T09:13:00.378Z,1005.86
2022-11-16T09:13:59.951Z,1005.86
2022-11-16T09:14:59.542Z,1005.88
2022-11-16T09:16:07.836Z,1005.88
2022-11-16T09:17:02.121Z,1005.91
2022-11-16T09:18:01.432Z,1005.92
2022-11-16T09:19:01.795Z,1005.9
2022-11-16T09:20:01.127Z,1005.89
2022-11-16T09:21:10.395Z,1005.85
2022-11-16T09:22:02.250Z,1005.89
2022-11-16T09:23:01.495Z,1005.8
2022-11-16T09:24:02.197Z,1005.83
2022-11-16T09:25:01.112Z,1005.83
2022-11-16T09:26:13.582Z,1005.81
2022-11-16T09:27:01.146Z,1005.81
2022-11-16T09:28:01.164Z,1005.77
2022-11-16T09:29:01.442Z,1005.79
2022-11-16T09:30:01.172Z,1005.76
2022-11-16T09:31:00.980Z,1005.75
2022-11-16T09:32:00.676Z,1005.73
2022-11-16T09:33:00.268Z,1005.73
2022-11-16T09:33:59.988Z,1005.73
2022-11-16T09:34:59.649Z,1005.71
2022-11-16T09:36:01.489Z,1005.74
2022-11-16T09:37:01.489Z,1005.71
2022-11-16T09:38:01.243Z,1005.72
2022-11-16T09:40:01.863Z,1005.75
2022-11-16T09:41:01.254Z,1005.68
2022-11-16T09:42:01.887Z,1005.67
2022-11-16T09:43:01.891Z,1005.65
2022-11-16T09:44:00.548Z,1005.64
2022-11-16T09:45:00.256Z,1005.61
2022-11-16T09:45:59.834Z,1005.61
2022-11-16T09:47:02.587Z,1005.62
2022-11-16T09:48:03.050Z,1005.59
2022-11-16T09:49:01.862Z,1005.57
2022-11-16T09:50:03.505Z,1005.59
2022-11-16T09:51:00.595Z,1005.62
2022-11-16T09:52:00.268Z,1005.61
2022-11-16T09:52:59.851Z,1005.64
2022-11-16T09:54:01.987Z,1005.63
2022-11-16T09:55:01.430Z,1005.67
2022-11-16T09:56:01.177Z,1005.66
2022-11-16T09:57:00.809Z,1005.69
2022-11-16T09:58:01.044Z,1005.69
2022-11-16T09:59:00.716Z,1005.66
2022-11-16T10:00:00.287Z,1005.7
2022-11-16T10:01:00.052Z,1005.65
2022-11-16T10:01:59.827Z,1005.63
2022-11-16T10:03:01.730Z,1005.65
2022-11-16T10:04:01.385Z,1005.58
2022-11-16T10:05:01.589Z,1005.57
2022-11-16T10:06:02.628Z,1005.57
2022-11-16T10:07:01.482Z,1005.55
2022-11-16T10:08:02.976Z,1005.5
2022-11-16T10:09:01.114Z,1005.55
2022-11-16T10:10:01.100Z,1005.42
2022-11-16T10:11:00.879Z,1005.44
2022-11-16T10:12:01.163Z,1005.43
2022-11-16T10:13:01.129Z,1005.44
2022-11-16T10:14:04.179Z,1005.46
2022-11-16T10:15:01.434Z,1005.36
2022-11-16T10:16:01.851Z,1005.42
2022-11-16T10:17:00.834Z,1005.38
2022-11-16T10:18:00.749Z,1005.38
2022-11-16T10:19:00.458Z,1005.33
2022-11-16T10:20:00.171Z,1005.37
2022-11-16T10:20:59.845Z,1005.34
2022-11-16T10:22:01.590Z,1005.32
2022-11-16T10:23:01.760Z,1005.26
2022-11-16T10:24:01.156Z,1005.32
2022-11-16T10:25:01.778Z,1005.29
2022-11-16T10:26:00.606Z,1005.3
2022-11-16T10:27:00.193Z,1005.27
2022-11-16T10:27:59.784Z,1005.32
2022-11-16T10:29:02.266Z,1005.36
2022-11-16T10:30:04.192Z,1005.28
2022-11-16T10:31:02.070Z,1005.33
2022-11-16T10:32:01.132Z,1005.28
2022-11-16T10:33:01.055Z,1005.3
2022-11-16T10:34:01.356Z,1005.34
2022-11-16T10:35:01.450Z,1005.33
2022-11-16T10:36:01.522Z,1005.38
2022-11-16T10:37:01.083Z,1005.41
2022-11-16T10:38:01.093Z,1005.39
2022-11-16T10:39:03.838Z,1005.42
2022-11-16T10:40:01.060Z,1005.46
2022-11-16T10:41:00.730Z,1005.41
2022-11-16T10:42:06.119Z,1005.49
2022-11-16T10:43:01.451Z,1005.5
2022-11-16T10:44:01.447Z,1005.51
2022-11-16T10:45:02.508Z,1005.49
2022-11-16T10:46:02.045Z,1005.5
2022-11-16T10:47:01.149Z,1005.5
2022-11-16T10:48:01.062Z,1005.49
2022-11-16T10:49:01.067Z,1005.42
2022-11-16T10:50:01.208Z,1005.47
2022-11-16T10:51:01.189Z,1005.39
2022-11-16T10:52:01.142Z,1005.41
2022-11-16T10:53:01.471Z,1005.39
2022-11-16T10:54:01.192Z,1005.42
2022-11-16T10:55:03.966Z,1005.4
2022-11-16T10:56:01.406Z,1005.36
2022-11-16T10:57:03.831Z,1005.37
2022-11-16T10:58:01.113Z,1005.37
2022-11-16T10:59:01.115Z,1005.39
2022-11-16T11:00:01.298Z,1005.39
2022-11-16T11:01:01.278Z,1005.36
2022-11-16T11:02:05.989Z,1005.35
2022-11-16T11:03:01.972Z,1005.29
2022-11-16T11:04:01.158Z,1005.29
2022-11-16T11:05:01.138Z,1005.3
2022-11-16T11:06:00.237Z,1005.25
2022-11-16T11:07:08.671Z,1005.24
2022-11-16T11:08:02.175Z,1005.24
2022-11-16T11:09:01.901Z,1005.21
2022-11-16T11:10:01.054Z,1005.25
2022-11-16T11:11:00.455Z,1005.2
2022-11-16T11:12:09.654Z,1005.22
2022-11-16T11:13:01.289Z,1005.23
2022-11-16T11:14:01.350Z,1005.18
2022-11-16T11:15:01.312Z,1005.21
2022-11-16T11:16:00.713Z,1005.15
2022-11-16T11:17:11.156Z,1005.14
2022-11-16T11:18:01.623Z,1005.18
2022-11-16T11:19:01.890Z,1005.09
2022-11-16T11:20:01.678Z,1005.15
2022-11-16T11:21:00.547Z,1005.11
2022-11-16T11:22:13.357Z,1005.11
2022-11-16T11:23:01.171Z,1005.09
2022-11-16T11:24:29.740Z,1005.09
2022-11-16T11:25:16.618Z,1005.1
2022-11-16T11:26:00.922Z,1005.09
2022-11-16T11:27:16.834Z,1005.09
2022-11-16T11:28:01.054Z,1005.1
2022-11-16T11:29:01.059Z,1005.11
2022-11-16T11:30:01.079Z,1005.07
2022-11-16T11:31:01.073Z,1005.13
2022-11-16T11:32:01.215Z,1005.12
2022-11-16T11:33:01.126Z,1005.13
2022-11-16T11:34:01.117Z,1005.1
2022-11-16T11:35:01.129Z,1005.09
2022-11-16T11:36:01.438Z,1005.09
2022-11-16T11:37:01.526Z,1005.12
2022-11-16T11:38:07.653Z,1005.09
2022-11-16T11:39:01.214Z,1005.09
2022-11-16T11:40:01.988Z,1005.06
2022-11-16T11:41:01.300Z,1005.1
2022-11-16T11:42:00.774Z,1005.16
2022-11-16T11:43:00.372Z,1005.11
2022-11-16T11:43:59.920Z,1005.08
2022-11-16T11:44:59.485Z,1005.11
2022-11-16T11:46:01.613Z,1005.11
2022-11-16T11:48:01.786Z,1005.13
2022-11-16T11:49:01.438Z,1005.1
2022-11-16T11:50:01.125Z,1005.09
2022-11-16T11:51:01.353Z,1005.06
2022-11-16T11:52:02.113Z,1005.11
2022-11-16T11:53:01.963Z,1005.06
2022-11-16T11:54:04.519Z,1005.07
2022-11-16T11:55:01.062Z,1005.07
2022-11-16T11:56:01.054Z,1005.1
2022-11-16T11:57:01.046Z,1005.04
2022-11-16T11:58:01.078Z,1005.09
2022-11-16T11:59:01.078Z,1005.05
2022-11-16T12:00:01.048Z,1005.02
2022-11-16T12:01:00.841Z,1005.04
2022-11-16T12:02:00.605Z,1005.04
2022-11-16T12:03:00.298Z,1005.04
2022-11-16T12:04:00.052Z,1005
2022-11-16T12:04:59.678Z,1005.04
2022-11-16T12:06:02.350Z,1004.99
2022-11-16T12:07:01.624Z,1004.95
2022-11-16T12:08:02.677Z,1005.02
2022-11-16T12:09:01.218Z,1004.97
2022-11-16T12:10:01.152Z,1004.95